sensor_id;sensor_type;location;lat;lon;timestamp;P1;durP1;ratioP1;P2;durP2;ratioP2
19414;SDS011;9843;48.882;12.592;2024-01-15T00:02:26;57.07;;;31.13;;
19414;SDS011;9843;48.882;12.592;2024-01-15T00:04:53;47.33;;;28.67;;
19414;SDS011;9843;48.882;12.592;2024-01-15T00:07:21;58.67;;;35.17;;
19414;SDS011;9843;48.882;12.592;2024-01-15T00:09:49;50.37;;;34.07;;
19414;SDS011;9843;48.882;12.592;2024-01-15T00:12:16;60.53;;;34.77;;
19414;SDS011;9843;48.882;12.592;2024-01-15T00:14:43;67.53;;;37.47;;
19414;SDS011;9843;48.882;12.592;2024-01-15T00:17:10;68.30;;;34.60;;
19414;SDS011;9843;48.882;12.592;2024-01-15T00:19:37;61.63;;;34.67;;
19414;SDS011;9843;48.882;12.592;2024-01-15T00:22:04;63.70;;;34.77;;
19414;SDS011;9843;48.882;12.592;2024-01-15T00:24:33;56.40;;;32.20;;
19414;SDS011;9843;48.882;12.592;2024-01-15T00:27:00;65.40;;;36.70;;
19414;SDS011;9843;48.882;12.592;2024-01-15T00:29:27;59.17;;;33.63;;
19414;SDS011;9843;48.882;12.592;2024-01-15T00:31:54;70.07;;;36.07;;
19414;SDS011;9843;48.882;12.592;2024-01-15T00:34:21;52.80;;;31.83;;
19414;SDS011;9843;48.882;12.592;2024-01-15T00:36:48;59.23;;;34.50;;
19414;SDS011;9843;48.882;12.592;2024-01-15T00:39:15;61.00;;;33.77;;
19414;SDS011;9843;48.882;12.592;2024-01-15T00:41:44;65.53;;;38.23;;
19414;SDS011;9843;48.882;12.592;2024-01-15T00:44:11;59.33;;;32.17;;
19414;SDS011;9843;48.882;12.592;2024-01-15T00:46:42;64.20;;;33.37;;
19414;SDS011;9843;48.882;12.592;2024-01-15T00:49:09;56.73;;;33.47;;
19414;SDS011;9843;48.882;12.592;2024-01-15T00:51:36;59.27;;;37.33;;
19414;SDS011;9843;48.882;12.592;2024-01-15T00:54:03;58.70;;;31.17;;
19414;SDS011;9843;48.882;12.592;2024-01-15T00:56:30;190.20;;;96.93;;
19414;SDS011;9843;48.882;12.592;2024-01-15T00:58:59;92.57;;;49.10;;
19414;SDS011;9843;48.882;12.592;2024-01-15T01:01:26;67.47;;;39.97;;
19414;SDS011;9843;48.882;12.592;2024-01-15T01:03:53;56.27;;;38.33;;
19414;SDS011;9843;48.882;12.592;2024-01-15T01:06:20;55.30;;;33.93;;
19414;SDS011;9843;48.882;12.592;2024-01-15T01:08:48;63.53;;;38.07;;
19414;SDS011;9843;48.882;12.592;2024-01-15T01:11:15;62.93;;;34.07;;
19414;SDS011;9843;48.882;12.592;2024-01-15T01:13:42;53.93;;;34.40;;
19414;SDS011;9843;48.882;12.592;2024-01-15T01:16:10;50.70;;;32.77;;
19414;SDS011;9843;48.882;12.592;2024-01-15T01:18:37;59.20;;;33.33;;
19414;SDS011;9843;48.882;12.592;2024-01-15T01:21:04;55.20;;;35.47;;
19414;SDS011;9843;48.882;12.592;2024-01-15T01:23:31;56.53;;;32.03;;
19414;SDS011;9843;48.882;12.592;2024-01-15T01:25:58;52.97;;;32.40;;
19414;SDS011;9843;48.882;12.592;2024-01-15T01:28:25;57.87;;;32.07;;
19414;SDS011;9843;48.882;12.592;2024-01-15T01:30:52;56.57;;;31.97;;
19414;SDS011;9843;48.882;12.592;2024-01-15T01:33:21;56.93;;;32.27;;
19414;SDS011;9843;48.882;12.592;2024-01-15T01:35:48;47.50;;;30.70;;
19414;SDS011;9843;48.882;12.592;2024-01-15T01:38:15;62.40;;;34.80;;
19414;SDS011;9843;48.882;12.592;2024-01-15T01:40:42;46.83;;;31.20;;
19414;SDS011;9843;48.882;12.592;2024-01-15T01:43:09;57.23;;;35.90;;
19414;SDS011;9843;48.882;12.592;2024-01-15T01:45:36;49.00;;;33.67;;
19414;SDS011;9843;48.882;12.592;2024-01-15T01:48:04;49.60;;;30.07;;
19414;SDS011;9843;48.882;12.592;2024-01-15T01:50:32;48.03;;;32.57;;
19414;SDS011;9843;48.882;12.592;2024-01-15T01:53:00;47.63;;;28.93;;
19414;SDS011;9843;48.882;12.592;2024-01-15T01:55:28;49.37;;;32.37;;
19414;SDS011;9843;48.882;12.592;2024-01-15T01:57:56;40.10;;;26.90;;
19414;SDS011;9843;48.882;12.592;2024-01-15T02:00:23;47.43;;;28.23;;
19414;SDS011;9843;48.882;12.592;2024-01-15T02:02:50;48.83;;;29.00;;
19414;SDS011;9843;48.882;12.592;2024-01-15T02:05:18;44.87;;;29.13;;
19414;SDS011;9843;48.882;12.592;2024-01-15T02:07:48;46.63;;;31.43;;
19414;SDS011;9843;48.882;12.592;2024-01-15T02:10:15;50.63;;;29.60;;
19414;SDS011;9843;48.882;12.592;2024-01-15T02:12:42;46.37;;;28.90;;
19414;SDS011;9843;48.882;12.592;2024-01-15T02:15:09;49.50;;;29.63;;
19414;SDS011;9843;48.882;12.592;2024-01-15T02:20:18;51.93;;;30.73;;
19414;SDS011;9843;48.882;12.592;2024-01-15T02:22:45;51.63;;;32.53;;
19414;SDS011;9843;48.882;12.592;2024-01-15T02:25:13;47.17;;;27.77;;
19414;SDS011;9843;48.882;12.592;2024-01-15T02:27:41;49.60;;;27.40;;
19414;SDS011;9843;48.882;12.592;2024-01-15T02:30:09;55.77;;;30.63;;
19414;SDS011;9843;48.882;12.592;2024-01-15T02:32:36;55.90;;;29.57;;
19414;SDS011;9843;48.882;12.592;2024-01-15T02:35:03;55.60;;;32.43;;
19414;SDS011;9843;48.882;12.592;2024-01-15T02:37:31;49.20;;;29.67;;
19414;SDS011;9843;48.882;12.592;2024-01-15T02:39:58;50.83;;;28.03;;
19414;SDS011;9843;48.882;12.592;2024-01-15T02:42:27;57.47;;;29.60;;
19414;SDS011;9843;48.882;12.592;2024-01-15T02:44:54;57.70;;;28.03;;
19414;SDS011;9843;48.882;12.592;2024-01-15T02:47:21;54.17;;;27.73;;
19414;SDS011;9843;48.882;12.592;2024-01-15T02:49:48;45.20;;;26.00;;
19414;SDS011;9843;48.882;12.592;2024-01-15T02:52:15;50.10;;;30.50;;
19414;SDS011;9843;48.882;12.592;2024-01-15T02:54:42;53.27;;;28.43;;
19414;SDS011;9843;48.882;12.592;2024-01-15T02:57:09;49.30;;;28.40;;
19414;SDS011;9843;48.882;12.592;2024-01-15T02:59:37;47.90;;;30.67;;
19414;SDS011;9843;48.882;12.592;2024-01-15T03:02:05;60.43;;;30.33;;
19414;SDS011;9843;48.882;12.592;2024-01-15T03:04:32;52.17;;;28.63;;
19414;SDS011;9843;48.882;12.592;2024-01-15T03:06:59;52.83;;;27.33;;
19414;SDS011;9843;48.882;12.592;2024-01-15T03:09:26;52.70;;;27.90;;
19414;SDS011;9843;48.882;12.592;2024-01-15T03:11:53;46.03;;;27.40;;
19414;SDS011;9843;48.882;12.592;2024-01-15T03:14:20;47.17;;;28.27;;
19414;SDS011;9843;48.882;12.592;2024-01-15T03:16:50;48.70;;;25.70;;
19414;SDS011;9843;48.882;12.592;2024-01-15T03:19:18;49.50;;;24.73;;
19414;SDS011;9843;48.882;12.592;2024-01-15T03:21:45;50.40;;;25.87;;
19414;SDS011;9843;48.882;12.592;2024-01-15T03:24:12;49.03;;;25.93;;
19414;SDS011;9843;48.882;12.592;2024-01-15T03:26:39;42.40;;;24.57;;
19414;SDS011;9843;48.882;12.592;2024-01-15T03:29:06;43.47;;;24.27;;
19414;SDS011;9843;48.882;12.592;2024-01-15T03:31:34;45.13;;;26.00;;
19414;SDS011;9843;48.882;12.592;2024-01-15T03:34:02;47.27;;;26.13;;
19414;SDS011;9843;48.882;12.592;2024-01-15T03:36:29;40.33;;;24.33;;
19414;SDS011;9843;48.882;12.592;2024-01-15T03:38:56;42.43;;;23.57;;
19414;SDS011;9843;48.882;12.592;2024-01-15T03:41:23;45.67;;;25.23;;
19414;SDS011;9843;48.882;12.592;2024-01-15T03:43:50;46.00;;;24.80;;
19414;SDS011;9843;48.882;12.592;2024-01-15T03:46:17;47.57;;;24.27;;
19414;SDS011;9843;48.882;12.592;2024-01-15T03:48:44;45.13;;;21.57;;
19414;SDS011;9843;48.882;12.592;2024-01-15T03:51:15;46.10;;;24.90;;
19414;SDS011;9843;48.882;12.592;2024-01-15T03:53:42;39.10;;;22.73;;
19414;SDS011;9843;48.882;12.592;2024-01-15T03:56:09;48.47;;;26.57;;
19414;SDS011;9843;48.882;12.592;2024-01-15T03:58:36;51.33;;;23.87;;
19414;SDS011;9843;48.882;12.592;2024-01-15T04:01:03;38.27;;;21.27;;
19414;SDS011;9843;48.882;12.592;2024-01-15T04:03:30;43.97;;;23.80;;
19414;SDS011;9843;48.882;12.592;2024-01-15T04:05:57;47.27;;;22.70;;
19414;SDS011;9843;48.882;12.592;2024-01-15T04:08:26;37.23;;;20.83;;
19414;SDS011;9843;48.882;12.592;2024-01-15T04:10:53;42.90;;;24.63;;
19414;SDS011;9843;48.882;12.592;2024-01-15T04:13:20;44.00;;;23.57;;
19414;SDS011;9843;48.882;12.592;2024-01-15T04:15:47;28.43;;;21.20;;
19414;SDS011;9843;48.882;12.592;2024-01-15T04:18:15;29.93;;;18.93;;
19414;SDS011;9843;48.882;12.592;2024-01-15T04:20:42;34.50;;;20.00;;
19414;SDS011;9843;48.882;12.592;2024-01-15T04:23:09;37.23;;;21.47;;
19414;SDS011;9843;48.882;12.592;2024-01-15T04:25:38;43.87;;;22.47;;
19414;SDS011;9843;48.882;12.592;2024-01-15T04:28:07;38.50;;;20.27;;
19414;SDS011;9843;48.882;12.592;2024-01-15T04:30:34;39.80;;;22.47;;
19414;SDS011;9843;48.882;12.592;2024-01-15T04:33:01;26.47;;;18.30;;
19414;SDS011;9843;48.882;12.592;2024-01-15T04:35:28;30.60;;;20.80;;
19414;SDS011;9843;48.882;12.592;2024-01-15T04:37:55;35.30;;;18.93;;
19414;SDS011;9843;48.882;12.592;2024-01-15T04:40:22;31.43;;;18.23;;
19414;SDS011;9843;48.882;12.592;2024-01-15T04:42:53;36.67;;;21.90;;
19414;SDS011;9843;48.882;12.592;2024-01-15T04:45:20;32.70;;;20.93;;
19414;SDS011;9843;48.882;12.592;2024-01-15T04:47:53;31.57;;;19.53;;
19414;SDS011;9843;48.882;12.592;2024-01-15T04:50:20;29.40;;;18.37;;
19414;SDS011;9843;48.882;12.592;2024-01-15T04:52:48;31.87;;;16.97;;
19414;SDS011;9843;48.882;12.592;2024-01-15T04:55:15;40.13;;;19.50;;
19414;SDS011;9843;48.882;12.592;2024-01-15T04:57:42;32.63;;;18.60;;
19414;SDS011;9843;48.882;12.592;2024-01-15T05:00:11;31.50;;;19.27;;
19414;SDS011;9843;48.882;12.592;2024-01-15T05:02:39;57.47;;;33.37;;
19414;SDS011;9843;48.882;12.592;2024-01-15T05:05:06;78.63;;;41.13;;
19414;SDS011;9843;48.882;12.592;2024-01-15T05:07:34;52.67;;;31.27;;
19414;SDS011;9843;48.882;12.592;2024-01-15T05:10:01;39.23;;;22.07;;
19414;SDS011;9843;48.882;12.592;2024-01-15T05:12:28;42.87;;;21.40;;
19414;SDS011;9843;48.882;12.592;2024-01-15T05:14:55;29.27;;;18.27;;
19414;SDS011;9843;48.882;12.592;2024-01-15T05:17:24;30.97;;;18.60;;
19414;SDS011;9843;48.882;12.592;2024-01-15T05:19:51;38.37;;;20.17;;
19414;SDS011;9843;48.882;12.592;2024-01-15T05:22:18;25.43;;;16.13;;
19414;SDS011;9843;48.882;12.592;2024-01-15T05:24:46;30.53;;;18.03;;
19414;SDS011;9843;48.882;12.592;2024-01-15T05:27:13;32.40;;;17.97;;
19414;SDS011;9843;48.882;12.592;2024-01-15T05:29:40;34.50;;;19.10;;
19414;SDS011;9843;48.882;12.592;2024-01-15T05:32:08;36.33;;;19.53;;
19414;SDS011;9843;48.882;12.592;2024-01-15T05:34:36;29.17;;;19.57;;
19414;SDS011;9843;48.882;12.592;2024-01-15T05:37:03;35.90;;;20.70;;
19414;SDS011;9843;48.882;12.592;2024-01-15T05:39:30;30.60;;;18.63;;
19414;SDS011;9843;48.882;12.592;2024-01-15T05:41:58;28.13;;;16.93;;
19414;SDS011;9843;48.882;12.592;2024-01-15T05:44:25;33.37;;;19.93;;
19414;SDS011;9843;48.882;12.592;2024-01-15T05:46:53;31.00;;;19.23;;
19414;SDS011;9843;48.882;12.592;2024-01-15T05:49:20;35.17;;;20.00;;
19414;SDS011;9843;48.882;12.592;2024-01-15T05:51:48;37.03;;;21.70;;
19414;SDS011;9843;48.882;12.592;2024-01-15T05:54:17;35.73;;;19.30;;
19414;SDS011;9843;48.882;12.592;2024-01-15T05:56:44;32.90;;;21.13;;
19414;SDS011;9843;48.882;12.592;2024-01-15T05:59:11;34.00;;;18.03;;
19414;SDS011;9843;48.882;12.592;2024-01-15T06:01:38;38.33;;;23.60;;
19414;SDS011;9843;48.882;12.592;2024-01-15T06:04:05;31.67;;;19.63;;
19414;SDS011;9843;48.882;12.592;2024-01-15T06:06:32;29.47;;;20.70;;
19414;SDS011;9843;48.882;12.592;2024-01-15T06:09:01;31.57;;;20.03;;
19414;SDS011;9843;48.882;12.592;2024-01-15T06:11:30;36.43;;;19.93;;
19414;SDS011;9843;48.882;12.592;2024-01-15T06:13:57;32.17;;;17.73;;
19414;SDS011;9843;48.882;12.592;2024-01-15T06:16:25;32.80;;;21.07;;
19414;SDS011;9843;48.882;12.592;2024-01-15T06:18:52;29.07;;;17.73;;
19414;SDS011;9843;48.882;12.592;2024-01-15T06:21:19;36.43;;;21.00;;
19414;SDS011;9843;48.882;12.592;2024-01-15T06:23:46;29.80;;;16.83;;
19414;SDS011;9843;48.882;12.592;2024-01-15T06:26:15;31.53;;;17.83;;
19414;SDS011;9843;48.882;12.592;2024-01-15T06:28:42;47.17;;;26.43;;
19414;SDS011;9843;48.882;12.592;2024-01-15T06:31:09;31.40;;;20.70;;
19414;SDS011;9843;48.882;12.592;2024-01-15T06:33:36;28.83;;;18.47;;
19414;SDS011;9843;48.882;12.592;2024-01-15T06:36:04;30.17;;;19.47;;
19414;SDS011;9843;48.882;12.592;2024-01-15T06:38:31;33.17;;;18.60;;
19414;SDS011;9843;48.882;12.592;2024-01-15T06:40:58;36.83;;;17.97;;
19414;SDS011;9843;48.882;12.592;2024-01-15T06:43:27;27.30;;;17.07;;
19414;SDS011;9843;48.882;12.592;2024-01-15T06:45:54;36.20;;;17.83;;
19414;SDS011;9843;48.882;12.592;2024-01-15T06:48:21;27.30;;;16.13;;
19414;SDS011;9843;48.882;12.592;2024-01-15T06:50:48;29.80;;;19.07;;
19414;SDS011;9843;48.882;12.592;2024-01-15T06:53:15;26.83;;;15.87;;
19414;SDS011;9843;48.882;12.592;2024-01-15T06:55:42;32.07;;;16.17;;
19414;SDS011;9843;48.882;12.592;2024-01-15T06:58:09;26.07;;;16.13;;
19414;SDS011;9843;48.882;12.592;2024-01-15T07:00:38;26.43;;;16.37;;
19414;SDS011;9843;48.882;12.592;2024-01-15T07:03:05;27.27;;;17.43;;
19414;SDS011;9843;48.882;12.592;2024-01-15T07:05:32;18.57;;;15.70;;
19414;SDS011;9843;48.882;12.592;2024-01-15T07:07:59;32.30;;;16.80;;
19414;SDS011;9843;48.882;12.592;2024-01-15T07:10:26;26.53;;;18.93;;
19414;SDS011;9843;48.882;12.592;2024-01-15T07:12:53;29.30;;;18.30;;
19414;SDS011;9843;48.882;12.592;2024-01-15T07:15:20;25.10;;;14.93;;
19414;SDS011;9843;48.882;12.592;2024-01-15T07:17:49;23.83;;;16.40;;
19414;SDS011;9843;48.882;12.592;2024-01-15T07:20:16;27.23;;;16.33;;
19414;SDS011;9843;48.882;12.592;2024-01-15T07:22:44;25.30;;;16.23;;
19414;SDS011;9843;48.882;12.592;2024-01-15T07:25:11;26.77;;;15.70;;
19414;SDS011;9843;48.882;12.592;2024-01-15T07:27:38;23.00;;;15.93;;
19414;SDS011;9843;48.882;12.592;2024-01-15T07:30:09;22.93;;;16.63;;
19414;SDS011;9843;48.882;12.592;2024-01-15T07:32:36;25.80;;;16.03;;
19414;SDS011;9843;48.882;12.592;2024-01-15T07:35:05;27.77;;;14.50;;
19414;SDS011;9843;48.882;12.592;2024-01-15T07:37:32;22.20;;;14.50;;
19414;SDS011;9843;48.882;12.592;2024-01-15T07:39:59;19.40;;;13.83;;
19414;SDS011;9843;48.882;12.592;2024-01-15T07:42:26;22.50;;;16.10;;
19414;SDS011;9843;48.882;12.592;2024-01-15T07:44:53;21.73;;;14.90;;
19414;SDS011;9843;48.882;12.592;2024-01-15T07:47:21;22.73;;;17.07;;
19414;SDS011;9843;48.882;12.592;2024-01-15T07:49:48;21.60;;;11.83;;
19414;SDS011;9843;48.882;12.592;2024-01-15T07:52:17;17.40;;;13.23;;
19414;SDS011;9843;48.882;12.592;2024-01-15T07:54:44;18.63;;;11.13;;
19414;SDS011;9843;48.882;12.592;2024-01-15T07:57:11;20.37;;;13.13;;
19414;SDS011;9843;48.882;12.592;2024-01-15T07:59:38;22.10;;;13.83;;
19414;SDS011;9843;48.882;12.592;2024-01-15T08:02:05;15.37;;;11.27;;
19414;SDS011;9843;48.882;12.592;2024-01-15T08:04:32;16.50;;;10.33;;
19414;SDS011;9843;48.882;12.592;2024-01-15T08:07:00;16.63;;;11.47;;
19414;SDS011;9843;48.882;12.592;2024-01-15T08:09:29;14.47;;;12.30;;
19414;SDS011;9843;48.882;12.592;2024-01-15T08:11:56;17.23;;;13.53;;
19414;SDS011;9843;48.882;12.592;2024-01-15T08:14:23;15.63;;;10.33;;
19414;SDS011;9843;48.882;12.592;2024-01-15T08:16:50;14.07;;;9.57;;
19414;SDS011;9843;48.882;12.592;2024-01-15T08:19:17;16.90;;;9.53;;
19414;SDS011;9843;48.882;12.592;2024-01-15T08:21:44;17.10;;;9.73;;
19414;SDS011;9843;48.882;12.592;2024-01-15T08:24:12;18.53;;;11.83;;
19414;SDS011;9843;48.882;12.592;2024-01-15T08:26:40;14.07;;;9.83;;
19414;SDS011;9843;48.882;12.592;2024-01-15T08:29:07;14.27;;;9.90;;
19414;SDS011;9843;48.882;12.592;2024-01-15T08:31:34;15.00;;;9.80;;
19414;SDS011;9843;48.882;12.592;2024-01-15T08:34:01;12.80;;;8.47;;
19414;SDS011;9843;48.882;12.592;2024-01-15T08:36:28;12.83;;;10.13;;
19414;SDS011;9843;48.882;12.592;2024-01-15T08:38:56;14.93;;;10.27;;
19414;SDS011;9843;48.882;12.592;2024-01-15T08:41:23;14.70;;;9.77;;
19414;SDS011;9843;48.882;12.592;2024-01-15T08:43:51;12.57;;;9.27;;
19414;SDS011;9843;48.882;12.592;2024-01-15T08:46:19;14.50;;;9.43;;
19414;SDS011;9843;48.882;12.592;2024-01-15T08:48:46;11.87;;;9.30;;
19414;SDS011;9843;48.882;12.592;2024-01-15T08:51:13;14.67;;;9.13;;
19414;SDS011;9843;48.882;12.592;2024-01-15T08:53:40;14.00;;;8.20;;
19414;SDS011;9843;48.882;12.592;2024-01-15T08:56:07;13.10;;;8.77;;
19414;SDS011;9843;48.882;12.592;2024-01-15T08:58:34;17.17;;;8.70;;
19414;SDS011;9843;48.882;12.592;2024-01-15T09:01:02;13.17;;;9.93;;
19414;SDS011;9843;48.882;12.592;2024-01-15T09:03:30;14.03;;;8.47;;
19414;SDS011;9843;48.882;12.592;2024-01-15T09:05:58;13.80;;;10.20;;
19414;SDS011;9843;48.882;12.592;2024-01-15T09:08:26;13.43;;;8.77;;
19414;SDS011;9843;48.882;12.592;2024-01-15T09:10:53;12.63;;;7.90;;
19414;SDS011;9843;48.882;12.592;2024-01-15T09:13:20;10.50;;;7.77;;
19414;SDS011;9843;48.882;12.592;2024-01-15T09:15:47;12.43;;;9.93;;
19414;SDS011;9843;48.882;12.592;2024-01-15T09:18:16;15.50;;;9.70;;
19414;SDS011;9843;48.882;12.592;2024-01-15T09:20:43;15.83;;;8.67;;
19414;SDS011;9843;48.882;12.592;2024-01-15T09:23:10;12.20;;;8.10;;
19414;SDS011;9843;48.882;12.592;2024-01-15T09:25:37;8.43;;;7.60;;
19414;SDS011;9843;48.882;12.592;2024-01-15T09:28:04;9.97;;;8.27;;
19414;SDS011;9843;48.882;12.592;2024-01-15T09:30:33;11.30;;;8.67;;
19414;SDS011;9843;48.882;12.592;2024-01-15T09:33:00;14.83;;;9.03;;
19414;SDS011;9843;48.882;12.592;2024-01-15T09:35:28;12.37;;;7.67;;
19414;SDS011;9843;48.882;12.592;2024-01-15T09:37:55;18.20;;;10.53;;
19414;SDS011;9843;48.882;12.592;2024-01-15T09:40:22;8.53;;;7.63;;
19414;SDS011;9843;48.882;12.592;2024-01-15T09:42:50;8.73;;;7.93;;
19414;SDS011;9843;48.882;12.592;2024-01-15T09:45:18;9.10;;;8.13;;
19414;SDS011;9843;48.882;12.592;2024-01-15T09:47:45;11.73;;;8.07;;
19414;SDS011;9843;48.882;12.592;2024-01-15T09:50:12;7.90;;;7.03;;
19414;SDS011;9843;48.882;12.592;2024-01-15T09:52:41;9.87;;;7.77;;
19414;SDS011;9843;48.882;12.592;2024-01-15T09:55:09;8.53;;;7.63;;
19414;SDS011;9843;48.882;12.592;2024-01-15T09:57:36;10.30;;;8.50;;
19414;SDS011;9843;48.882;12.592;2024-01-15T10:00:05;9.93;;;7.90;;
19414;SDS011;9843;48.882;12.592;2024-01-15T10:02:35;10.13;;;7.60;;
19414;SDS011;9843;48.882;12.592;2024-01-15T10:05:03;12.30;;;7.40;;
19414;SDS011;9843;48.882;12.592;2024-01-15T10:07:30;14.00;;;9.23;;
19414;SDS011;9843;48.882;12.592;2024-01-15T10:10:01;12.23;;;7.80;;
19414;SDS011;9843;48.882;12.592;2024-01-15T10:12:28;11.80;;;8.63;;
19414;SDS011;9843;48.882;12.592;2024-01-15T10:14:55;8.93;;;7.57;;
19414;SDS011;9843;48.882;12.592;2024-01-15T10:17:23;9.70;;;7.20;;
19414;SDS011;9843;48.882;12.592;2024-01-15T10:19:52;9.63;;;7.83;;
19414;SDS011;9843;48.882;12.592;2024-01-15T10:22:19;12.03;;;9.13;;
19414;SDS011;9843;48.882;12.592;2024-01-15T10:24:47;9.03;;;7.00;;
19414;SDS011;9843;48.882;12.592;2024-01-15T10:27:15;12.23;;;8.37;;
19414;SDS011;9843;48.882;12.592;2024-01-15T10:29:42;13.50;;;10.33;;
19414;SDS011;9843;48.882;12.592;2024-01-15T10:32:10;14.40;;;9.03;;
19414;SDS011;9843;48.882;12.592;2024-01-15T10:34:38;12.33;;;9.03;;
19414;SDS011;9843;48.882;12.592;2024-01-15T10:37:06;10.07;;;7.70;;
19414;SDS011;9843;48.882;12.592;2024-01-15T10:39:34;9.80;;;8.70;;
19414;SDS011;9843;48.882;12.592;2024-01-15T10:42:01;13.93;;;8.33;;
19414;SDS011;9843;48.882;12.592;2024-01-15T10:44:30;11.27;;;7.93;;
19414;SDS011;9843;48.882;12.592;2024-01-15T10:46:57;10.43;;;7.70;;
19414;SDS011;9843;48.882;12.592;2024-01-15T10:49:24;7.53;;;6.70;;
19414;SDS011;9843;48.882;12.592;2024-01-15T10:51:53;15.20;;;8.60;;
19414;SDS011;9843;48.882;12.592;2024-01-15T10:54:20;9.70;;;7.03;;
19414;SDS011;9843;48.882;12.592;2024-01-15T10:56:49;11.43;;;7.53;;
19414;SDS011;9843;48.882;12.592;2024-01-15T10:59:16;9.20;;;6.37;;
19414;SDS011;9843;48.882;12.592;2024-01-15T11:01:46;8.53;;;6.67;;
19414;SDS011;9843;48.882;12.592;2024-01-15T11:04:13;8.60;;;6.50;;
19414;SDS011;9843;48.882;12.592;2024-01-15T11:06:42;11.83;;;7.27;;
19414;SDS011;9843;48.882;12.592;2024-01-15T11:09:09;10.33;;;7.43;;
19414;SDS011;9843;48.882;12.592;2024-01-15T11:11:39;10.07;;;7.40;;
19414;SDS011;9843;48.882;12.592;2024-01-15T11:14:07;11.17;;;7.73;;
19414;SDS011;9843;48.882;12.592;2024-01-15T11:16:54;9.93;;;7.53;;
19414;SDS011;9843;48.882;12.592;2024-01-15T11:19:22;7.67;;;6.30;;
19414;SDS011;9843;48.882;12.592;2024-01-15T11:21:49;7.53;;;6.13;;
19414;SDS011;9843;48.882;12.592;2024-01-15T11:24:35;8.47;;;6.70;;
19414;SDS011;9843;48.882;12.592;2024-01-15T11:27:02;11.90;;;6.97;;
19414;SDS011;9843;48.882;12.592;2024-01-15T11:29:30;10.00;;;6.00;;
19414;SDS011;9843;48.882;12.592;2024-01-15T11:32:00;10.83;;;6.97;;
19414;SDS011;9843;48.882;12.592;2024-01-15T11:37:15;9.53;;;7.27;;
19414;SDS011;9843;48.882;12.592;2024-01-15T11:39:42;8.30;;;7.40;;
19414;SDS011;9843;48.882;12.592;2024-01-15T11:42:09;11.80;;;7.00;;
19414;SDS011;9843;48.882;12.592;2024-01-15T11:44:37;8.77;;;6.53;;
19414;SDS011;9843;48.882;12.592;2024-01-15T11:47:06;9.90;;;7.90;;
19414;SDS011;9843;48.882;12.592;2024-01-15T11:49:39;10.20;;;7.93;;
19414;SDS011;9843;48.882;12.592;2024-01-15T11:52:10;15.07;;;6.97;;
19414;SDS011;9843;48.882;12.592;2024-01-15T11:54:38;9.97;;;6.57;;
19414;SDS011;9843;48.882;12.592;2024-01-15T11:57:08;8.27;;;6.60;;
19414;SDS011;9843;48.882;12.592;2024-01-15T11:59:37;9.47;;;7.03;;
19414;SDS011;9843;48.882;12.592;2024-01-15T12:02:05;8.87;;;5.97;;
19414;SDS011;9843;48.882;12.592;2024-01-15T12:04:32;8.20;;;7.27;;
19414;SDS011;9843;48.882;12.592;2024-01-15T12:06:59;10.37;;;7.73;;
19414;SDS011;9843;48.882;12.592;2024-01-15T12:09:26;11.83;;;7.23;;
19414;SDS011;9843;48.882;12.592;2024-01-15T12:11:56;7.67;;;6.53;;
19414;SDS011;9843;48.882;12.592;2024-01-15T12:14:25;8.70;;;5.70;;
19414;SDS011;9843;48.882;12.592;2024-01-15T12:16:54;8.23;;;6.97;;
19414;SDS011;9843;48.882;12.592;2024-01-15T12:19:22;7.83;;;7.13;;
19414;SDS011;9843;48.882;12.592;2024-01-15T12:21:50;8.50;;;7.27;;
19414;SDS011;9843;48.882;12.592;2024-01-15T12:24:17;10.70;;;6.47;;
19414;SDS011;9843;48.882;12.592;2024-01-15T12:26:44;7.77;;;5.63;;
19414;SDS011;9843;48.882;12.592;2024-01-15T12:29:11;12.50;;;8.27;;
19414;SDS011;9843;48.882;12.592;2024-01-15T12:31:38;8.97;;;7.03;;
19414;SDS011;9843;48.882;12.592;2024-01-15T12:34:05;7.43;;;6.73;;
19414;SDS011;9843;48.882;12.592;2024-01-15T12:36:34;9.00;;;7.20;;
19414;SDS011;9843;48.882;12.592;2024-01-15T12:39:01;7.77;;;6.70;;
19414;SDS011;9843;48.882;12.592;2024-01-15T12:41:28;10.60;;;7.53;;
19414;SDS011;9843;48.882;12.592;2024-01-15T12:43:55;10.20;;;6.50;;
19414;SDS011;9843;48.882;12.592;2024-01-15T12:46:23;8.90;;;7.27;;
19414;SDS011;9843;48.882;12.592;2024-01-15T12:48:50;10.83;;;6.83;;
19414;SDS011;9843;48.882;12.592;2024-01-15T12:51:17;7.47;;;6.10;;
19414;SDS011;9843;48.882;12.592;2024-01-15T12:53:45;8.57;;;7.03;;
19414;SDS011;9843;48.882;12.592;2024-01-15T12:56:12;13.23;;;7.23;;
19414;SDS011;9843;48.882;12.592;2024-01-15T12:58:39;9.40;;;6.77;;
19414;SDS011;9843;48.882;12.592;2024-01-15T13:01:06;8.97;;;6.90;;
19414;SDS011;9843;48.882;12.592;2024-01-15T13:03:34;6.67;;;6.03;;
19414;SDS011;9843;48.882;12.592;2024-01-15T13:06:01;9.97;;;7.30;;
19414;SDS011;9843;48.882;12.592;2024-01-15T13:08:28;13.23;;;9.03;;
19414;SDS011;9843;48.882;12.592;2024-01-15T13:10:56;11.63;;;8.07;;
19414;SDS011;9843;48.882;12.592;2024-01-15T13:13:24;9.93;;;5.37;;
19414;SDS011;9843;48.882;12.592;2024-01-15T13:15:51;7.27;;;6.10;;
19414;SDS011;9843;48.882;12.592;2024-01-15T13:18:18;11.43;;;7.93;;
19414;SDS011;9843;48.882;12.592;2024-01-15T13:20:45;9.30;;;6.57;;
19414;SDS011;9843;48.882;12.592;2024-01-15T13:23:12;11.87;;;7.00;;
19414;SDS011;9843;48.882;12.592;2024-01-15T13:25:39;6.20;;;5.40;;
19414;SDS011;9843;48.882;12.592;2024-01-15T13:28:07;8.00;;;7.07;;
19414;SDS011;9843;48.882;12.592;2024-01-15T13:30:34;11.83;;;6.50;;
19414;SDS011;9843;48.882;12.592;2024-01-15T13:33:02;8.00;;;6.37;;
19414;SDS011;9843;48.882;12.592;2024-01-15T13:35:30;6.43;;;5.40;;
19414;SDS011;9843;48.882;12.592;2024-01-15T13:37:58;8.57;;;6.87;;
19414;SDS011;9843;48.882;12.592;2024-01-15T13:40:25;8.50;;;5.37;;
19414;SDS011;9843;48.882;12.592;2024-01-15T13:42:52;6.50;;;5.93;;
19414;SDS011;9843;48.882;12.592;2024-01-15T13:45:20;7.80;;;6.10;;
19414;SDS011;9843;48.882;12.592;2024-01-15T13:47:49;6.60;;;6.00;;
19414;SDS011;9843;48.882;12.592;2024-01-15T13:50:16;9.70;;;7.00;;
19414;SDS011;9843;48.882;12.592;2024-01-15T13:52:43;20.50;;;11.30;;
19414;SDS011;9843;48.882;12.592;2024-01-15T13:55:10;17.70;;;11.30;;
19414;SDS011;9843;48.882;12.592;2024-01-15T13:57:37;17.30;;;8.73;;
19414;SDS011;9843;48.882;12.592;2024-01-15T14:00:05;28.07;;;13.40;;
19414;SDS011;9843;48.882;12.592;2024-01-15T14:02:37;12.50;;;9.60;;
19414;SDS011;9843;48.882;12.592;2024-01-15T14:05:04;13.83;;;10.20;;
19414;SDS011;9843;48.882;12.592;2024-01-15T14:07:32;14.33;;;11.03;;
19414;SDS011;9843;48.882;12.592;2024-01-15T14:09:59;9.70;;;7.50;;
19414;SDS011;9843;48.882;12.592;2024-01-15T14:12:26;7.00;;;6.10;;
19414;SDS011;9843;48.882;12.592;2024-01-15T14:14:53;10.43;;;8.40;;
19414;SDS011;9843;48.882;12.592;2024-01-15T14:17:20;9.93;;;8.13;;
19414;SDS011;9843;48.882;12.592;2024-01-15T14:19:49;7.90;;;6.80;;
19414;SDS011;9843;48.882;12.592;2024-01-15T14:22:16;9.53;;;7.67;;
19414;SDS011;9843;48.882;12.592;2024-01-15T14:24:43;11.87;;;6.97;;
19414;SDS011;9843;48.882;12.592;2024-01-15T14:27:10;8.67;;;7.13;;
19414;SDS011;9843;48.882;12.592;2024-01-15T14:29:37;7.23;;;6.47;;
19414;SDS011;9843;48.882;12.592;2024-01-15T14:32:04;9.10;;;7.63;;
19414;SDS011;9843;48.882;12.592;2024-01-15T14:34:31;12.03;;;7.47;;
19414;SDS011;9843;48.882;12.592;2024-01-15T14:37:02;6.03;;;5.47;;